Zeynalabdin Tagiyev — 9HLD8 — position and weather

sailwx.info

Track history (hours):
 
Tides and Currents Weather Stations Pressure Air Temp Water Temp Dewpoint Dewpoint Depression Visibility Wind Speed Wind Dir Waves Ship Positions

Zeynalabdin Tagiyev

Last reported at 2017-Dec-30 19:16 UTC. Time now 2018-Jan-18 00:15 UTC.
Position N 45°13' E 036°28'.
Warning: this ship's position is 18 days out of date.

Length 140 m; draft 3.9 m.

Type: Cargo ship. MMSI: 256107000.

Date/timePositionNaut miles runAvg speedWind from/ knotsBaromVisibWave heightAir tempDewpointWater temp
2017-Dec-30 19:16N 45°13' E 036°28'2 6.5
2017-Dec-30 18:57N 45°15' E 036°28'3 6.4
2017-Dec-30 18:26N 45°18' E 036°29'4 8.3
2017-Dec-30 18:00N 45°19' E 036°34'4 8.4
2017-Dec-30 17:30N 45°21' E 036°39'4 7.4
2017-Dec-30 17:00N 45°25' E 036°41'4 7.2
2017-Dec-30 16:30N 45°28' E 036°42'1 2.9
2017-Dec-30 16:00N 45°30' E 036°41'0 0.3
2017-Dec-30 15:30N 45°30' E 036°41'  
2017-Dec-24 11:03N 45°36' E 036°44'0 7.7
2017-Dec-24 11:00N 45°36' E 036°45'5 7.8
2017-Dec-24 10:24N 45°31' E 036°45'3 7.8
2017-Dec-24 10:00N 45°28' E 036°43'4 8.1
2017-Dec-24 09:30N 45°24' E 036°41'4 7.1
2017-Dec-24 08:55N 45°21' E 036°38'3 8.0
2017-Dec-24 08:30N 45°20' E 036°34'5 7.2
2017-Dec-24 07:51N 45°17' E 036°29'3 7.0
2017-Dec-24 07:27N 45°14' E 036°29'  
2017-Dec-21 11:54N 40°53' E 029°01'1 3.6
2017-Dec-21 11:30N 40°51' E 029°01'6 0.7
2017-Dec-21 03:12N 40°56' E 028°57'6 5.8
2017-Dec-21 02:13N 40°52' E 028°52'  
Track history (hours):
 
Tides and Currents Weather Stations Pressure Air Temp Water Temp Dewpoint Dewpoint Depression Visibility Wind Speed Wind Dir Waves Ship Positions

Zeynalabdin Tagiyev

Last reported at 2017-Dec-30 19:16 UTC. Time now 2018-Jan-18 00:15 UTC.
Position N 45°13' E 036°28'.
Warning: this ship's position is 18 days out of date.

Length 140 m; draft 3.9 m.

Type: Cargo ship. MMSI: 256107000.

Date/timePositionNaut miles runAvg speedWind from/ knotsBaromVisibWave heightAir tempDewpointWater temp
2017-Dec-30 19:16N 45°13' E 036°28'2 6.5
2017-Dec-30 18:57N 45°15' E 036°28'3 6.4
2017-Dec-30 18:26N 45°18' E 036°29'4 8.3
2017-Dec-30 18:00N 45°19' E 036°34'4 8.4
2017-Dec-30 17:30N 45°21' E 036°39'4 7.4
2017-Dec-30 17:00N 45°25' E 036°41'4 7.2
2017-Dec-30 16:30N 45°28' E 036°42'1 2.9
2017-Dec-30 16:00N 45°30' E 036°41'0 0.3
2017-Dec-30 15:30N 45°30' E 036°41'  
2017-Dec-24 11:03N 45°36' E 036°44'0 7.7
2017-Dec-24 11:00N 45°36' E 036°45'5 7.8
2017-Dec-24 10:24N 45°31' E 036°45'3 7.8
2017-Dec-24 10:00N 45°28' E 036°43'4 8.1
2017-Dec-24 09:30N 45°24' E 036°41'4 7.1
2017-Dec-24 08:55N 45°21' E 036°38'3 8.0
2017-Dec-24 08:30N 45°20' E 036°34'5 7.2
2017-Dec-24 07:51N 45°17' E 036°29'3 7.0
2017-Dec-24 07:27N 45°14' E 036°29'  
2017-Dec-21 11:54N 40°53' E 029°01'1 3.6
2017-Dec-21 11:30N 40°51' E 029°01'6 0.7
2017-Dec-21 03:12N 40°56' E 028°57'6 5.8
2017-Dec-21 02:13N 40°52' E 028°52'  

Dump ship's entire track history